Time;durP1;ratioP1;P1;durP2;ratioP2;P2;SDS_P1;SDS_P2;PMS_P1;PMS_P2;Temp;Humidity;BMP_temperature;BMP_pressure;BME280_temperature;BME280_humidity;BME280_pressure;Samples;Min_cycle;Max_cycle;Signal;HPM_P1;HPM_P2
2022/05/29 00:01:13;;;;;;;12.27;3.72;;;10.00;99.90;;;;;;5002201;28;20046;-81
2022/05/29 00:03:39;;;;;;;12.65;3.92;;;10.00;99.90;;;;;;4996088;28;20084;-80
2022/05/29 00:06:05;;;;;;;10.68;4.10;;;10.00;99.90;;;;;;4985209;28;20046;-81
2022/05/29 00:08:34;;;;;;;15.57;3.80;;;10.00;99.90;;;;;;4975873;28;20038;-81
2022/05/29 00:11:01;;;;;;;14.90;3.65;;;10.00;99.90;;;;;;5003501;28;20050;-81
2022/05/29 00:13:27;;;;;;;15.32;4.22;;;10.00;99.90;;;;;;4977048;28;20121;-81
2022/05/29 00:15:53;;;;;;;15.23;4.07;;;10.00;96.70;;;;;;4991426;28;20066;-81
2022/05/29 00:18:22;;;;;;;16.70;4.28;;;10.00;97.20;;;;;;4999697;28;20068;-81
2022/05/29 00:20:54;;;;;;;16.17;3.63;;;10.00;74.00;;;;;;4991315;28;20129;-80
2022/05/29 00:23:21;;;;;;;11.23;3.67;;;9.90;59.40;;;;;;4978692;28;20439;-81
2022/05/29 00:25:49;;;;;;;10.52;3.67;;;9.90;1.00;;;;;;4978810;28;20042;-80
2022/05/29 00:28:15;;;;;;;14.02;3.72;;;9.90;1.00;;;;;;4976226;28;20484;-81
2022/05/29 00:30:41;;;;;;;11.25;3.65;;;9.80;1.00;;;;;;4973905;28;20054;-80
2022/05/29 00:33:08;;;;;;;14.98;3.83;;;9.80;1.00;;;;;;4980654;28;20069;-80
2022/05/29 00:35:33;;;;;;;11.95;4.65;;;9.80;1.00;;;;;;4970835;28;22392;-81
2022/05/29 00:38:00;;;;;;;11.82;3.17;;;9.80;1.00;;;;;;4980756;28;20217;-81
2022/05/29 00:40:36;;;;;;;15.15;3.42;;;9.70;1.00;;;;;;4994523;28;20090;-80
2022/05/29 00:43:03;;;;;;;12.73;3.83;;;9.80;1.00;;;;;;5003224;28;20045;-82
2022/05/29 00:45:42;;;;;;;9.68;3.42;;;9.70;81.60;;;;;;4978337;28;20050;-82
2022/05/29 00:48:11;;;;;;;14.50;3.58;;;9.60;99.90;;;;;;4991014;28;20620;-81
2022/05/29 00:50:37;;;;;;;12.88;3.88;;;9.60;99.90;;;;;;5003199;28;20041;-82
2022/05/29 00:53:03;;;;;;;18.02;4.22;;;9.40;99.90;;;;;;5005251;28;20038;-81
2022/05/29 00:55:32;;;;;;;13.40;3.67;;;9.50;99.90;;;;;;4971977;28;20078;-81
2022/05/29 00:58:03;;;;;;;14.35;3.45;;;9.40;99.90;;;;;;4994590;28;20611;-81
2022/05/29 01:00:31;;;;;;;10.90;3.38;;;9.40;99.90;;;;;;4989014;28;20165;-81
2022/05/29 01:02:59;;;;;;;11.93;3.90;;;9.40;99.90;;;;;;4992611;28;20127;-81
2022/05/29 01:05:31;;;;;;;9.57;3.75;;;9.50;99.90;;;;;;5007855;28;21155;-81
2022/05/29 01:08:19;;;;;;;17.23;4.32;;;9.40;99.90;;;;;;4991697;28;20042;-81
2022/05/29 01:10:53;;;;;;;15.63;3.70;;;9.40;99.90;;;;;;5008964;28;20524;-81
2022/05/29 01:13:22;;;;;;;9.45;3.35;;;9.40;99.90;;;;;;4980892;28;20049;-81
2022/05/29 01:15:47;;;;;;;11.38;3.30;;;9.40;99.90;;;;;;5007245;28;20050;-81
2022/05/29 01:18:19;;;;;;;12.70;4.10;;;9.50;99.90;;;;;;5008085;28;20034;-81
2022/05/29 01:21:18;;;;;;;14.23;4.05;;;9.50;99.90;;;;;;4978185;28;20040;-80
2022/05/29 01:23:55;;;;;;;15.63;3.55;;;9.50;99.90;;;;;;5007830;28;20405;-80
2022/05/29 01:26:58;;;;;;;10.95;3.30;;;9.60;99.90;;;;;;4979873;28;20485;-81
2022/05/29 01:29:29;;;;;;;11.52;3.55;;;9.60;99.90;;;;;;5005746;28;20042;-80
2022/05/29 01:32:03;;;;;;;11.75;3.47;;;9.60;99.90;;;;;;4992865;28;20034;-80
2022/05/29 01:35:05;;;;;;;11.48;3.92;;;9.60;99.90;;;;;;5000683;28;20504;-80
2022/05/29 01:37:45;;;;;;;13.60;3.40;;;9.60;99.90;;;;;;4966205;28;20046;-80
2022/05/29 01:40:35;;;;;;;15.45;3.83;;;9.70;99.90;;;;;;4999754;28;20335;-82
2022/05/29 01:43:26;;;;;;;14.02;3.80;;;9.70;99.90;;;;;;5005360;28;20495;-82
2022/05/29 01:46:14;;;;;;;11.75;3.63;;;9.70;99.90;;;;;;4979153;28;20269;-81
2022/05/29 01:48:50;;;;;;;12.95;3.78;;;9.70;99.90;;;;;;4992966;28;20038;-81
2022/05/29 01:51:23;;;;;;;18.80;4.45;;;9.70;99.90;;;;;;4991727;28;20118;-81
2022/05/29 01:54:16;;;;;;;13.98;3.40;;;9.70;99.90;;;;;;4980889;28;20519;-81
2022/05/29 01:56:49;;;;;;;13.35;3.95;;;9.80;99.90;;;;;;5011015;28;20069;-81
2022/05/29 01:59:21;;;;;;;12.52;3.30;;;9.80;99.90;;;;;;4995593;28;20273;-81
2022/05/29 02:01:54;;;;;;;12.25;4.25;;;9.70;99.90;;;;;;5007788;28;20166;-81
2022/05/29 02:04:24;;;;;;;12.88;4.13;;;9.70;99.90;;;;;;5003956;28;20076;-81
2022/05/29 02:09:47;;;;;;;9.85;3.65;;;9.70;99.90;;;;;;4978293;28;20043;-81
2022/05/29 02:12:22;;;;;;;16.35;4.22;;;9.60;99.90;;;;;;4974537;28;20050;-81
2022/05/29 02:14:59;;;;;;;15.55;4.20;;;9.60;99.90;;;;;;5006199;28;20152;-81
2022/05/29 02:17:35;;;;;;;11.63;4.38;;;9.60;99.90;;;;;;5006501;28;20045;-81
2022/05/29 02:20:12;;;;;;;15.23;3.90;;;9.60;99.90;;;;;;4975333;28;20278;-81
2022/05/29 02:22:40;;;;;;;11.65;3.72;;;9.60;99.90;;;;;;5006192;28;20645;-81
2022/05/29 02:25:11;;;;;;;16.00;4.35;;;9.60;99.90;;;;;;4994386;28;20049;-81
2022/05/29 02:27:46;;;;;;;18.85;4.50;;;9.60;99.90;;;;;;5006750;28;20046;-80
2022/05/29 02:30:12;;;;;;;;;;;9.60;99.90;;;;;;5001647;28;20038;-80
2022/05/29 02:32:48;;;;;;;16.02;4.68;;;9.60;99.90;;;;;;5012489;28;20293;-80
2022/05/29 02:35:21;;;;;;;10.05;4.10;;;9.60;99.90;;;;;;4977786;28;20311;-80
2022/05/29 02:38:14;;;;;;;12.93;4.47;;;9.60;99.90;;;;;;4974728;28;20038;-81
2022/05/29 02:40:53;;;;;;;14.57;4.38;;;9.60;99.90;;;;;;5007968;28;20054;-80
2022/05/29 02:43:27;;;;;;;13.27;5.38;;;9.60;99.90;;;;;;5004281;28;20051;-80
2022/05/29 02:46:31;;;;;;;13.80;4.57;;;9.60;99.90;;;;;;4973188;28;20460;-80
2022/05/29 02:49:11;;;;;;;13.80;4.70;;;9.60;99.90;;;;;;4971600;28;20536;-81
2022/05/29 02:51:49;;;;;;;17.17;4.60;;;9.60;99.90;;;;;;4988710;28;20093;-81
2022/05/29 02:54:30;;;;;;;23.75;4.93;;;9.60;99.90;;;;;;5002884;28;20417;-81
2022/05/29 02:56:58;;;;;;;15.07;4.63;;;9.70;99.90;;;;;;5005129;28;20289;-81
2022/05/29 02:59:29;;;;;;;11.55;4.80;;;9.70;99.90;;;;;;4985377;28;20046;-81
2022/05/29 03:02:27;;;;;;;18.38;4.65;;;9.70;99.90;;;;;;4988857;28;20122;-80
2022/05/29 03:05:13;;;;;;;14.63;4.82;;;9.70;99.90;;;;;;4975318;28;20142;-81
2022/05/29 03:08:16;;;;;;;15.85;4.22;;;9.70;99.90;;;;;;4985290;28;20098;-81
2022/05/29 03:10:54;;;;;;;9.63;3.47;;;9.80;99.90;;;;;;5005027;28;20054;-80
2022/05/29 03:13:51;;;;;;;10.55;3.10;;;9.70;99.90;;;;;;4978835;28;20316;-81
2022/05/29 03:16:38;;;;;;;8.20;2.90;;;9.70;99.90;;;;;;4997928;28;20042;-81
2022/05/29 03:19:14;;;;;;;9.82;2.92;;;9.80;99.90;;;;;;5001048;28;20548;-80
2022/05/29 03:22:02;;;;;;;11.43;3.10;;;9.80;99.90;;;;;;5006129;28;20034;-80
2022/05/29 03:24:38;;;;;;;13.82;2.85;;;9.80;99.90;;;;;;4976110;28;21417;-80
2022/05/29 03:27:37;;;;;;;8.65;2.85;;;9.80;99.90;;;;;;4978428;28;20587;-80
2022/05/29 03:30:07;;;;;;;11.40;3.20;;;9.80;99.90;;;;;;4973461;28;20042;-80
2022/05/29 03:32:34;;;;;;;11.32;2.88;;;9.80;99.90;;;;;;4976885;28;20553;-81
2022/05/29 03:35:15;;;;;;;10.63;3.42;;;9.80;99.90;;;;;;4980085;28;20041;-80
2022/05/29 03:37:40;;;;;;;12.25;3.50;;;9.80;99.90;;;;;;5003856;28;20038;-80
2022/05/29 03:40:06;;;;;;;9.88;3.30;;;9.80;99.90;;;;;;4993404;28;20050;-80
2022/05/29 03:42:32;;;;;;;12.18;3.55;;;9.90;99.90;;;;;;5001812;28;20048;-80
2022/05/29 03:44:58;;;;;;;8.82;2.92;;;9.90;99.90;;;;;;5002560;28;20046;-81
2022/05/29 03:47:23;;;;;;;13.88;3.38;;;9.90;99.90;;;;;;5001106;28;20307;-80
2022/05/29 03:49:49;;;;;;;11.77;3.67;;;9.90;99.90;;;;;;4973122;28;20610;-80
2022/05/29 03:52:14;;;;;;;15.35;3.55;;;9.90;99.90;;;;;;5001623;28;20046;-80
2022/05/29 03:54:40;;;;;;;16.05;3.72;;;9.90;99.90;;;;;;4989056;28;20073;-81
2022/05/29 03:57:06;;;;;;;12.00;2.92;;;9.90;99.90;;;;;;5004312;28;20093;-80
2022/05/29 03:59:31;;;;;;;11.05;3.20;;;9.90;99.90;;;;;;4974758;28;20497;-81
2022/05/29 04:01:57;;;;;;;13.00;2.72;;;10.00;99.90;;;;;;5003171;28;20034;-80
2022/05/29 04:04:23;;;;;;;9.90;2.75;;;9.90;99.90;;;;;;4990277;28;20534;-81
2022/05/29 04:06:48;;;;;;;13.80;3.30;;;10.00;99.90;;;;;;4973429;28;20038;-80
2022/05/29 04:12:04;;;;;;;8.55;3.03;;;10.00;76.30;;;;;;4978707;28;20074;-81
2022/05/29 04:14:32;;;;;;;10.13;2.55;;;10.00;64.00;;;;;;5000636;28;20469;-80
2022/05/29 04:16:57;;;;;;;13.05;3.15;;;10.10;23.60;;;;;;4989077;28;20049;-80
2022/05/29 04:19:23;;;;;;;8.43;2.58;;;10.10;22.90;;;;;;4987724;28;20034;-81
2022/05/29 04:21:49;;;;;;;10.00;2.95;;;10.10;15.60;;;;;;4972556;28;20042;-81
2022/05/29 04:24:20;;;;;;;11.75;2.70;;;10.10;24.00;;;;;;4972301;28;20042;-80
2022/05/29 04:26:48;;;;;;;8.45;2.17;;;10.10;1.00;;;;;;4974904;28;20066;-80
2022/05/29 04:29:14;;;;;;;11.27;2.83;;;10.10;7.30;;;;;;4998915;28;20142;-81
2022/05/29 04:32:59;;;;;;;12.32;3.00;;;10.10;1.00;;;;;;4992851;28;20049;-81
2022/05/29 04:34:25;;;;;;;17.30;3.55;;;10.10;1.00;;;;;;4972292;28;20306;-81
2022/05/29 04:36:51;;;;;;;10.13;2.20;;;10.10;1.00;;;;;;4994322;28;20034;-80
2022/05/29 04:39:16;;;;;;;10.52;2.88;;;10.10;1.00;;;;;;5000127;28;20030;-80
2022/05/29 04:41:42;;;;;;;11.50;2.45;;;10.10;1.00;;;;;;4997717;28;20046;-81
2022/05/29 04:44:08;;;;;;;16.55;3.20;;;10.20;1.00;;;;;;5007424;28;20419;-81
2022/05/29 04:46:33;;;;;;;14.00;3.17;;;10.10;1.00;;;;;;5008650;28;20034;-81
2022/05/29 04:48:59;;;;;;;10.65;2.60;;;10.20;12.50;;;;;;5007029;28;20561;-80
2022/05/29 04:51:25;;;;;;;9.52;2.65;;;10.10;53.40;;;;;;4996701;28;20042;-80
2022/05/29 04:53:50;;;;;;;7.55;2.63;;;10.10;88.30;;;;;;4978453;28;20047;-81
2022/05/29 04:56:16;;;;;;;10.77;3.03;;;10.00;99.90;;;;;;4996705;28;20392;-80
2022/05/29 04:58:42;;;;;;;14.80;3.50;;;10.00;99.90;;;;;;5006390;28;20446;-81
2022/05/29 05:01:07;;;;;;;11.77;2.92;;;10.00;99.90;;;;;;4978648;28;20220;-81
2022/05/29 05:03:33;;;;;;;9.98;2.75;;;10.00;99.90;;;;;;4982406;28;20121;-81
2022/05/29 05:05:59;;;;;;;15.23;3.50;;;10.00;99.90;;;;;;4979833;28;20038;-81
2022/05/29 05:08:25;;;;;;;10.00;3.05;;;10.00;99.90;;;;;;4991054;28;20213;-80
2022/05/29 05:10:50;;;;;;;11.50;2.80;;;10.10;99.90;;;;;;4984771;28;20052;-81
2022/05/29 05:13:16;;;;;;;11.82;2.65;;;10.10;99.90;;;;;;4987747;28;20034;-80
2022/05/29 05:15:42;;;;;;;12.82;2.60;;;10.20;99.90;;;;;;4990259;28;20095;-81
2022/05/29 05:18:08;;;;;;;10.20;2.58;;;10.20;99.90;;;;;;5015043;28;20576;-80
2022/05/29 05:20:35;;;;;;;14.25;3.13;;;10.30;99.90;;;;;;5013915;28;20034;-81
2022/05/29 05:23:01;;;;;;;13.80;2.78;;;10.30;99.90;;;;;;4984548;28;20045;-81
2022/05/29 05:25:27;;;;;;;16.25;3.15;;;10.30;99.90;;;;;;4981394;28;20065;-81
2022/05/29 05:27:53;;;;;;;11.75;3.10;;;10.40;95.70;;;;;;4983269;28;20132;-81
2022/05/29 05:30:19;;;;;;;11.93;3.03;;;10.40;65.10;;;;;;4979358;28;20414;-80
2022/05/29 05:32:45;;;;;;;13.50;3.40;;;10.50;60.10;;;;;;4975096;28;20210;-80
2022/05/29 05:35:11;;;;;;;12.20;2.78;;;10.50;11.10;;;;;;4973467;28;20039;-80
2022/05/29 05:37:39;;;;;;;13.55;2.90;;;10.50;26.20;;;;;;4979696;28;20371;-80
2022/05/29 05:40:09;;;;;;;11.82;3.33;;;10.60;76.40;;;;;;4996557;28;21028;-80
2022/05/29 05:42:35;;;;;;;12.00;3.05;;;10.50;10.10;;;;;;4988603;28;20038;-81
2022/05/29 05:45:01;;;;;;;13.27;3.08;;;10.50;39.00;;;;;;4980485;28;20520;-80
2022/05/29 05:47:26;;;;;;;15.10;3.00;;;10.40;41.40;;;;;;4975990;28;20603;-80
2022/05/29 05:49:52;;;;;;;14.57;2.80;;;10.30;99.90;;;;;;4974052;28;20044;-81
2022/05/29 05:52:19;;;;;;;10.70;2.78;;;10.20;99.90;;;;;;4976430;28;20531;-80
2022/05/29 05:54:45;;;;;;;15.55;3.05;;;10.10;99.90;;;;;;5002071;28;20039;-80
2022/05/29 05:57:11;;;;;;;12.98;2.70;;;10.10;99.90;;;;;;4984048;28;20045;-80
2022/05/29 05:59:38;;;;;;;16.85;3.00;;;10.10;99.90;;;;;;4976076;28;20027;-81
2022/05/29 06:02:07;;;;;;;16.80;3.22;;;10.00;99.90;;;;;;5005630;28;20038;-80
2022/05/29 06:04:32;;;;;;;10.48;2.75;;;10.10;99.90;;;;;;5008717;28;20440;-81
2022/05/29 06:06:58;;;;;;;15.38;3.00;;;10.30;99.90;;;;;;5001572;28;20045;-80
2022/05/29 06:09:24;;;;;;;10.13;2.90;;;10.30;99.90;;;;;;5010119;28;20424;-80
2022/05/29 06:11:50;;;;;;;15.02;2.78;;;10.30;99.90;;;;;;4981128;28;20396;-81
2022/05/29 06:14:15;;;;;;;11.65;2.80;;;10.50;99.90;;;;;;4984861;28;20566;-80
2022/05/29 06:16:41;;;;;;;11.45;2.65;;;10.50;99.90;;;;;;4990677;28;20069;-80
2022/05/29 06:19:07;;;;;;;11.73;2.95;;;10.60;99.90;;;;;;4996037;28;20539;-80
2022/05/29 06:21:35;;;;;;;13.13;2.70;;;10.60;99.30;;;;;;4979674;28;20508;-81
2022/05/29 06:24:01;;;;;;;10.30;3.08;;;10.50;92.60;;;;;;4989946;28;20045;-80
2022/05/29 06:26:27;;;;;;;13.73;2.75;;;10.50;97.30;;;;;;4977654;28;20077;-80
2022/05/29 06:28:53;;;;;;;11.85;2.70;;;10.60;99.90;;;;;;5006095;28;20042;-80
2022/05/29 06:31:18;;;;;;;13.35;2.75;;;10.70;99.90;;;;;;4990852;28;20121;-80
2022/05/29 06:33:47;;;;;;;15.05;2.88;;;10.70;93.00;;;;;;4972978;28;20132;-81
2022/05/29 06:36:15;;;;;;;14.40;2.92;;;10.70;99.90;;;;;;4981348;28;20076;-80
2022/05/29 06:38:43;;;;;;;12.68;3.30;;;10.80;83.80;;;;;;5011508;28;20038;-80
2022/05/29 06:41:10;;;;;;;12.45;3.10;;;10.80;46.10;;;;;;5005248;28;20148;-80
2022/05/29 06:43:37;;;;;;;10.85;3.33;;;10.80;69.40;;;;;;4981553;28;20088;-80
2022/05/29 06:46:04;;;;;;;16.55;3.78;;;10.90;56.00;;;;;;5011439;28;20059;-81
2022/05/29 06:48:35;;;;;;;13.15;3.13;;;10.90;49.90;;;;;;4988439;28;20034;-80
2022/05/29 06:51:14;;;;;;;12.90;2.75;;;11.00;1.00;;;;;;4998685;28;20038;-80
2022/05/29 06:53:40;;;;;;;9.02;2.67;;;11.00;1.00;;;;;;5013238;28;20526;-80
2022/05/29 06:56:07;;;;;;;9.77;2.35;;;11.00;1.00;;;;;;4980863;28;20073;-81
2022/05/29 06:58:33;;;;;;;12.95;2.72;;;11.00;99.90;;;;;;4999639;28;20200;-80
2022/05/29 07:09:23;;;;;;;12.02;2.45;;;11.10;99.90;;;;;;4985152;28;20052;-80
2022/05/29 07:11:51;;;;;;;9.57;2.35;;;11.10;99.90;;;;;;4977353;28;20037;-80
2022/05/29 07:14:17;;;;;;;12.40;2.30;;;11.20;99.90;;;;;;4998985;28;20457;-80
2022/05/29 07:16:46;;;;;;;9.00;2.20;;;11.10;99.90;;;;;;4983366;28;20086;-81
2022/05/29 07:19:13;;;;;;;11.13;2.45;;;11.10;99.90;;;;;;4976987;28;20034;-81
2022/05/29 07:21:40;;;;;;;12.35;2.58;;;11.20;99.90;;;;;;5010324;28;20137;-81
2022/05/29 07:24:07;;;;;;;10.55;2.53;;;11.20;99.90;;;;;;4980162;28;20121;-81
2022/05/29 07:26:33;;;;;;;9.20;2.60;;;11.20;99.90;;;;;;5006579;28;20042;-80
2022/05/29 07:28:59;;;;;;;13.32;2.50;;;11.20;99.90;;;;;;5005998;28;20045;-81
2022/05/29 07:31:25;;;;;;;12.85;2.63;;;11.30;99.90;;;;;;4977190;28;21597;-81
2022/05/29 07:33:51;;;;;;;7.90;2.38;;;11.20;99.90;;;;;;4985433;28;20312;-81
2022/05/29 07:36:17;;;;;;;10.30;2.22;;;11.00;99.90;;;;;;5005078;28;20038;-81
2022/05/29 07:38:43;;;;;;;11.98;2.38;;;10.80;99.90;;;;;;4979070;28;20034;-81
2022/05/29 07:43:54;;;;;;;10.32;2.78;;;10.80;1.00;;;;;;4974411;28;20101;-81
2022/05/29 07:46:20;;;;;;;9.98;1.95;;;11.00;99.90;;;;;;5006650;28;20045;-81
2022/05/29 07:48:49;;;;;;;11.35;2.50;;;11.00;99.90;;;;;;4976702;28;20145;-81
2022/05/29 07:51:15;;;;;;;11.43;2.67;;;11.10;1.00;;;;;;4999441;28;20053;-80
2022/05/29 07:53:40;;;;;;;12.63;2.33;;;11.20;99.90;;;;;;5003377;28;20235;-80
2022/05/29 07:56:07;;;;;;;10.45;2.28;;;11.20;99.90;;;;;;4992698;28;20496;-81
2022/05/29 07:58:33;;;;;;;11.82;2.03;;;11.30;1.00;;;;;;4971897;28;20502;-80
2022/05/29 08:01:02;;;;;;;10.32;2.17;;;11.40;99.90;;;;;;4997419;28;20029;-81
2022/05/29 08:03:28;;;;;;;6.53;1.52;;;11.50;99.90;;;;;;4999337;28;20117;-81
2022/05/29 08:05:56;;;;;;;9.15;1.80;;;11.50;99.90;;;;;;4969475;28;20647;-81
2022/05/29 08:08:22;;;;;;;8.45;2.38;;;11.50;99.90;;;;;;4994130;28;20409;-81
2022/05/29 08:10:48;;;;;;;9.18;1.88;;;11.60;99.90;;;;;;4977928;28;20037;-81
2022/05/29 08:13:14;;;;;;;8.18;1.50;;;11.60;99.90;;;;;;4981923;28;20093;-81
2022/05/29 08:15:41;;;;;;;8.13;1.48;;;11.60;99.90;;;;;;4990111;28;20153;-81
2022/05/29 08:18:09;;;;;;;5.68;1.63;;;11.60;99.90;;;;;;4997866;28;20070;-81
2022/05/29 08:20:36;;;;;;;5.05;1.30;;;11.40;99.90;;;;;;4979447;28;20046;-81
2022/05/29 08:23:03;;;;;;;5.63;1.60;;;11.30;99.90;;;;;;4981348;28;20117;-80
2022/05/29 08:30:57;;;;;;;6.45;1.30;;;11.50;99.90;;;;;;5009925;28;20130;-81
2022/05/29 08:33:29;;;;;;;7.03;1.25;;;11.70;99.90;;;;;;4980041;28;20109;-81
2022/05/29 08:36:24;;;;;;;7.97;1.67;;;11.80;99.90;;;;;;5008639;28;20078;-81
2022/05/29 08:38:52;;;;;;;4.72;1.30;;;11.50;99.90;;;;;;5002354;28;20093;-81
2022/05/29 08:41:45;;;;;;;6.20;1.30;;;11.10;99.90;;;;;;4976460;28;20053;-81
2022/05/29 08:44:14;;;;;;;6.57;1.65;;;11.10;1.00;;;;;;5001038;28;20322;-81
2022/05/29 08:46:49;;;;;;;8.40;1.60;;;11.10;1.00;;;;;;5003099;28;20375;-81
2022/05/29 08:49:18;;;;;;;10.13;2.08;;;11.00;1.00;;;;;;4998980;28;20117;-80
2022/05/29 08:52:22;;;;;;;6.22;1.95;;;11.10;99.90;;;;;;5005027;28;20068;-81
2022/05/29 08:55:05;;;;;;;6.43;2.20;;;11.10;1.00;;;;;;4975904;28;20038;-80
2022/05/29 08:58:00;;;;;;;6.60;2.00;;;11.20;1.00;;;;;;4996057;28;20636;-80
2022/05/29 09:00:26;;;;;;;5.65;1.70;;;11.40;1.00;;;;;;4982428;28;20050;-80
2022/05/29 09:03:18;;;;;;;8.25;2.05;;;11.30;99.90;;;;;;4971884;28;21200;-81
2022/05/29 09:05:51;;;;;;;7.18;2.38;;;11.30;99.90;;;;;;5002578;28;20065;-81
2022/05/29 09:08:26;;;;;;;7.75;2.00;;;11.20;1.00;;;;;;4974216;28;20104;-81
2022/05/29 09:10:59;;;;;;;6.28;2.10;;;11.20;1.00;;;;;;5004817;28;20354;-81
2022/05/29 09:13:42;;;;;;;9.93;2.28;;;11.20;1.00;;;;;;4986217;28;20051;-81
2022/05/29 09:16:20;;;;;;;5.45;1.80;;;11.10;1.00;;;;;;5005993;28;20050;-81
2022/05/29 09:19:21;;;;;;;4.95;1.58;;;10.90;99.90;;;;;;4974642;28;20471;-81
2022/05/29 09:22:01;;;;;;;5.05;1.33;;;10.80;99.90;;;;;;4973835;28;20050;-81
2022/05/29 09:24:36;;;;;;;7.32;2.10;;;10.80;99.90;;;;;;4988889;28;20595;-80
2022/05/29 09:27:02;;;;;;;;;;;11.00;99.90;;;;;;5007064;28;20156;-81
2022/05/29 09:29:28;;;;;;;5.38;1.38;;;11.00;99.90;;;;;;4982650;28;19947;-81
2022/05/29 09:31:53;;;;;;;5.65;1.50;;;11.10;1.00;;;;;;4980014;28;20379;-80
2022/05/29 09:34:20;;;;;;;4.90;1.83;;;11.30;99.90;;;;;;5009829;28;20044;-81
2022/05/29 09:36:59;;;;;;;6.70;1.60;;;11.40;99.90;;;;;;4968127;28;20451;-81
2022/05/29 09:39:33;;;;;;;7.38;1.50;;;11.40;99.90;;;;;;4981108;28;20045;-81
2022/05/29 09:42:24;;;;;;;8.65;1.75;;;11.60;99.90;;;;;;5009488;28;20134;-81
2022/05/29 09:45:19;;;;;;;4.72;1.55;;;11.50;99.90;;;;;;4997680;28;20046;-81
2022/05/29 09:50:41;;;;;;;10.10;1.90;;;11.30;99.90;;;;;;5002086;28;20453;-81
2022/05/29 09:53:19;;;;;;;8.32;2.42;;;11.00;1.00;;;;;;4975108;28;20042;-83
2022/05/29 09:55:58;;;;;;;8.75;1.80;;;10.70;1.00;;;;;;4990313;28;20042;-82
2022/05/29 09:58:43;;;;;;;6.95;1.70;;;11.00;1.00;;;;;;4982087;28;20053;-82
2022/05/29 10:01:09;;;;;;;9.93;2.53;;;11.10;1.00;;;;;;4976192;28;20060;-81
2022/05/29 10:03:52;;;;;;;9.15;1.98;;;11.00;1.00;;;;;;4982256;28;20461;-81
2022/05/29 10:06:31;;;;;;;8.30;2.00;;;11.40;1.00;;;;;;4992530;28;20108;-81
2022/05/29 10:09:12;;;;;;;8.13;1.80;;;11.60;99.90;;;;;;4986722;28;20567;-81
2022/05/29 10:11:39;;;;;;;8.95;2.28;;;11.70;1.00;;;;;;4995969;28;20042;-81
2022/05/29 10:14:19;;;;;;;11.40;2.15;;;11.90;1.00;;;;;;4972487;28;20136;-81
2022/05/29 10:16:47;;;;;;;11.00;2.10;;;12.00;99.90;;;;;;4975261;28;20030;-81
2022/05/29 10:19:29;;;;;;;6.93;1.92;;;11.80;99.90;;;;;;4974404;28;20129;-81
2022/05/29 10:21:55;;;;;;;5.95;2.25;;;12.00;99.90;;;;;;5001878;28;20057;-81
2022/05/29 10:24:37;;;;;;;10.30;1.75;;;11.80;1.00;;;;;;4980230;28;20072;-80
2022/05/29 10:27:13;;;;;;;9.63;1.88;;;11.90;99.90;;;;;;4975405;28;20045;-81
2022/05/29 10:29:41;;;;;;;9.27;1.73;;;11.70;99.90;;;;;;5004969;28;20049;-81
2022/05/29 10:32:18;;;;;;;10.02;1.73;;;11.70;99.90;;;;;;5004050;28;20067;-81
2022/05/29 10:34:44;;;;;;;12.02;1.85;;;11.70;99.90;;;;;;4970252;28;20157;-81
2022/05/29 10:37:40;;;;;;;6.88;1.90;;;11.70;99.90;;;;;;4992505;28;20042;-81
2022/05/29 10:40:26;;;;;;;8.55;2.00;;;11.70;99.90;;;;;;5002490;28;20603;-81
2022/05/29 10:42:59;;;;;;;9.48;3.08;;;11.90;99.90;;;;;;4993551;28;20465;-81
2022/05/29 10:45:44;;;;;;;9.57;1.80;;;11.70;99.90;;;;;;5004354;28;20366;-81
2022/05/29 10:48:41;;;;;;;7.78;1.90;;;11.50;99.90;;;;;;4971480;28;20077;-81
2022/05/29 10:51:19;;;;;;;6.97;1.95;;;11.60;99.90;;;;;;4967431;28;20053;-81
2022/05/29 10:54:21;;;;;;;4.70;1.60;;;11.60;99.90;;;;;;4989003;28;20739;-81
2022/05/29 10:57:18;;;;;;;7.30;1.55;;;11.90;99.90;;;;;;4994012;28;20532;-81
2022/05/29 11:00:11;;;;;;;4.95;1.58;;;12.20;99.90;;;;;;5005296;28;20034;-81
2022/05/29 11:06:01;;;;;;;5.15;1.45;;;12.50;99.90;;;;;;4977878;28;20468;-81
2022/05/29 11:09:18;;;;;;;7.32;3.40;;;12.30;99.90;;;;;;4996703;28;20049;-81
2022/05/29 11:11:58;;;;;;;6.63;1.50;;;12.00;99.90;;;;;;4978250;28;20313;-81
2022/05/29 11:14:33;;;;;;;5.78;1.50;;;11.60;99.90;;;;;;4978494;28;20073;-81
2022/05/29 11:16:59;;;;;;;6.95;1.67;;;11.50;99.90;;;;;;4979351;28;20802;-82
2022/05/29 11:19:59;;;;;;;6.90;2.22;;;11.30;99.90;;;;;;4962399;28;20049;-82
2022/05/29 11:23:02;;;;;;;7.75;1.92;;;11.10;99.90;;;;;;5000016;28;20485;-81
2022/05/29 11:26:00;;;;;;;5.90;1.42;;;11.10;99.90;;;;;;5007305;28;20050;-82
2022/05/29 11:29:03;;;;;;;7.65;1.77;;;11.00;99.90;;;;;;4989470;28;20050;-82
2022/05/29 11:32:14;;;;;;;5.05;1.60;;;11.10;99.90;;;;;;5009244;28;20045;-81
2022/05/29 11:35:05;;;;;;;10.20;1.67;;;11.30;99.90;;;;;;4990016;28;22226;-81
2022/05/29 11:38:10;;;;;;;8.23;1.65;;;11.50;99.90;;;;;;4979255;28;20068;-81
2022/05/29 11:40:43;;;;;;;8.93;1.77;;;11.80;99.90;;;;;;4973578;28;20068;-81
2022/05/29 11:43:30;;;;;;;10.38;1.83;;;12.10;99.90;;;;;;5006175;28;20054;-81
2022/05/29 11:52:15;;;;;;;6.45;1.67;;;12.70;99.90;;;;;;5004892;28;20165;-81
2022/05/29 11:55:12;;;;;;;12.15;2.03;;;12.70;99.90;;;;;;5000375;28;20309;-82
2022/05/29 11:57:56;;;;;;;8.95;2.08;;;12.70;99.90;;;;;;5010359;28;20077;-81
2022/05/29 12:00:29;;;;;;;6.40;2.00;;;12.60;99.90;;;;;;5008460;28;20405;-81
2022/05/29 12:03:19;;;;;;;6.75;1.92;;;12.50;99.90;;;;;;4985955;28;20077;-81
2022/05/29 12:05:51;;;;;;;10.60;2.33;;;12.70;99.90;;;;;;4985701;28;20042;-81
2022/05/29 12:08:36;;;;;;;11.18;2.80;;;12.70;99.90;;;;;;5009065;28;20046;-82
2022/05/29 12:11:19;;;;;;;13.23;1.93;;;12.70;99.90;;;;;;4984509;28;20046;-81
2022/05/29 12:13:57;;;;;;;9.18;2.10;;;12.50;99.90;;;;;;5008374;28;20284;-81
2022/05/29 12:16:29;;;;;;;9.65;2.30;;;12.40;99.90;;;;;;4993690;28;20037;-81
2022/05/29 12:18:57;;;;;;;10.20;2.20;;;12.50;99.90;;;;;;4981872;28;20027;-81
2022/05/29 12:21:49;;;;;;;10.65;1.95;;;12.40;99.90;;;;;;5009647;28;20037;-81
2022/05/29 12:24:21;;;;;;;6.90;1.80;;;12.30;99.90;;;;;;4994567;28;20095;-81
2022/05/29 12:27:15;;;;;;;9.73;2.47;;;12.20;99.90;;;;;;4980308;28;20577;-81
2022/05/29 12:29:59;;;;;;;11.07;2.17;;;11.70;99.90;;;;;;4967340;28;20054;-81
2022/05/29 12:32:35;;;;;;;7.47;1.60;;;12.00;99.90;;;;;;4984269;28;20089;-81
2022/05/29 12:35:19;;;;;;;7.60;2.00;;;11.50;1.00;;;;;;5007231;28;20487;-81
2022/05/29 12:37:48;;;;;;;6.82;1.70;;;11.40;99.90;;;;;;4998706;28;20817;-81
2022/05/29 12:40:47;;;;;;;7.18;2.00;;;11.40;99.90;;;;;;4968257;28;20057;-81
2022/05/29 12:43:36;;;;;;;9.02;1.98;;;11.60;99.90;;;;;;5001412;28;20125;-81
2022/05/29 12:46:08;;;;;;;7.97;2.17;;;11.60;99.90;;;;;;5002301;28;20152;-82
2022/05/29 12:48:52;;;;;;;7.18;1.83;;;11.60;1.00;;;;;;4966172;28;20763;-81
2022/05/29 12:51:38;;;;;;;5.78;1.85;;;11.70;99.90;;;;;;4985661;28;20122;-81
2022/05/29 12:54:28;;;;;;;9.30;2.10;;;11.80;99.90;;;;;;4990281;28;20116;-81
2022/05/29 12:57:15;;;;;;;9.43;2.10;;;11.80;99.90;;;;;;4975807;28;20038;-81
2022/05/29 12:59:56;;;;;;;8.60;1.80;;;11.90;99.90;;;;;;4978223;28;20042;-81
2022/05/29 13:02:27;;;;;;;8.98;2.08;;;12.10;99.90;;;;;;4994023;28;20112;-82
2022/05/29 13:04:59;;;;;;;6.22;2.00;;;12.40;99.90;;;;;;4979958;28;20133;-81
2022/05/29 13:07:46;;;;;;;6.20;1.40;;;12.40;99.90;;;;;;5011273;28;20043;-81
2022/05/29 13:10:20;;;;;;;8.48;2.20;;;12.40;99.90;;;;;;5007335;28;20746;-81
2022/05/29 13:12:49;;;;;;;8.38;2.30;;;12.40;99.90;;;;;;5009271;28;20088;-82
2022/05/29 13:15:27;;;;;;;7.22;1.70;;;12.40;99.90;;;;;;5008674;28;20078;-81
2022/05/29 13:21:17;;;;;;;5.85;1.73;;;12.30;99.90;;;;;;4964410;28;20057;-81
2022/05/29 13:23:54;;;;;;;9.60;1.88;;;12.40;99.90;;;;;;5008809;28;20157;-82
2022/05/29 13:26:30;;;;;;;6.10;1.83;;;12.20;99.90;;;;;;4982995;28;20090;-81
2022/05/29 13:29:03;;;;;;;7.90;2.20;;;12.20;99.90;;;;;;5002333;28;20030;-81
2022/05/29 13:31:31;;;;;;;9.13;2.10;;;12.30;99.90;;;;;;5005998;28;20524;-82
2022/05/29 13:34:30;;;;;;;9.57;1.92;;;12.30;99.90;;;;;;5005353;28;20038;-82
2022/05/29 13:37:00;;;;;;;8.85;1.85;;;12.60;99.90;;;;;;4989857;28;20057;-81
2022/05/29 13:39:30;;;;;;;8.65;2.03;;;12.50;99.90;;;;;;5004260;28;20056;-82
2022/05/29 13:42:00;;;;;;;10.82;2.30;;;12.70;99.90;;;;;;4982248;28;20077;-82
2022/05/29 13:44:31;;;;;;;11.07;2.08;;;12.60;99.90;;;;;;4979058;28;20401;-82
2022/05/29 13:47:18;;;;;;;6.82;1.70;;;12.70;99.90;;;;;;5009234;28;20042;-81
2022/05/29 13:49:50;;;;;;;10.00;2.75;;;12.60;99.90;;;;;;4991157;28;20138;-81
2022/05/29 13:52:21;;;;;;;11.50;2.25;;;12.70;99.90;;;;;;4992413;28;20594;-82
2022/05/29 13:55:10;;;;;;;8.25;2.03;;;12.50;99.90;;;;;;5005982;28;20668;-82
2022/05/29 14:06:27;;;;;;;5.63;1.95;;;11.80;99.90;;;;;;5001631;28;20070;-81
2022/05/29 14:09:08;;;;;;;9.82;1.80;;;11.80;99.90;;;;;;4974948;28;20177;-81